tux-planet.fr alexa rank chart, tux-planet.fr alexa rank daily changes

tux-planet.fr alexa rank chart, tux-planet.fr alexa rank daily changes

tux-planet.fr
Actual rank:
266 660

RANK HISTORY

Date Rank Diff
2017/03/30 266 660 -1 392
2017/03/29 268 052 +16 245
2017/03/28 251 807 +2 214
2017/03/27 249 593 -978
2017/03/26 250 571 +3 764
2017/03/25 246 807 -3 052
2017/03/24 249 859 +8 384
2017/03/23 241 475 -212
2017/03/22 241 687 -747
2017/03/21 242 434 -4 297
2017/03/20 246 731 +5 141
2017/03/19 241 590 -2 323
2017/03/18 243 913 +6 828
2017/03/17 237 085 -1 626
2017/03/16 238 711 +3 279
2017/03/15 235 432 +6 949
2017/03/14 228 483 -3 735
2017/03/13 232 218 +7 386
2017/03/12 224 832 -3 673
2017/03/11 228 505 -1 887
2017/03/10 230 392 +4 669
2017/03/09 225 723 +273
2017/03/08 225 450 -887
2017/03/07 226 337 +2 552
2017/03/06 223 785 +4 216
2017/03/01 219 569 -13 941
2017/02/28 233 510 -2 461
2017/02/27 235 971 +183
2017/02/26 235 788 +3 237
2017/02/25 232 551 -12 682
2017/02/24 245 233 -10 676
2017/02/23 255 909 -3 120
2017/02/22 259 029 +5 005
2017/02/21 254 024 -3 216
2017/02/20 257 240 +4 256
2017/02/19 252 984 +5 276
2017/02/18 247 708 -950
2017/02/17 248 658 -7 114
2017/02/16 255 772 +6 275
2017/02/15 249 497 -8 627
2017/02/14 258 124 +10 324
2017/02/13 247 800 -11 663
2017/02/12 259 463 +8 586
2017/02/11 250 877 -171
2017/02/10 251 048 -905
2017/02/09 251 953 +6 271
2017/02/08 245 682 -16 472
2017/02/07 262 154 +4 458
2017/02/06 257 696 -4 201
2017/02/05 261 897 -9 669
2017/02/04 271 566 -4 494
2017/02/03 276 060 -897
2017/02/02 276 957 -6 920
2017/02/01 283 877 +4 725
2017/01/31 279 152 +8 044
2017/01/30 271 108 +875
2017/01/29 270 233

WIDGET FOR YOUR SITE

DOMAINS WITH THE NEAREST RANK

Domain Rank
colorkinetics.com 266 655
staztic.com 266 656
maimonidesmed.org 266 657
franchisezing.com 266 658
tipirate.net 266 659
tux-planet.fr 266 660
events.at 266 661
viralwhats.com 266 662
cloudexpoeurope.com 266 663
fuddruckers.com 266 664
nanog.org 266 665

DOMAINS WITH THE NEAREST RANK BY TLD .fr

Domain Rank
actes-sud.fr 266 241
edfentreprises.fr 266 427
popgom.fr 266 475
irstea.fr 266 548
franceonline.fr 266 552
tux-planet.fr 266 660
wizishop.fr 266 696
joshnoaco.fr 266 772
lenergietoutcompris.fr 266 875
alienware.fr 266 904
le-boxon-de-lex.fr 266 980